createdAt,value
2023-04-16T00:00:03.405Z,991.92
2023-04-16T00:01:05.136Z,991.9
2023-04-16T00:02:06.880Z,991.91
2023-04-16T00:03:08.896Z,991.94
2023-04-16T00:04:10.573Z,991.99
2023-04-16T00:05:12.043Z,991.93
2023-04-16T00:06:14.006Z,991.94
2023-04-16T00:07:15.498Z,991.96
2023-04-16T00:08:17.254Z,991.94
2023-04-16T00:09:18.995Z,991.98
2023-04-16T00:10:20.685Z,991.96
2023-04-16T00:11:22.415Z,991.96
2023-04-16T00:12:24.147Z,991.98
2023-04-16T00:13:25.909Z,991.97
2023-04-16T00:14:27.648Z,991.95
2023-04-16T00:15:29.361Z,991.98
2023-04-16T00:16:31.094Z,991.98
2023-04-16T00:17:32.850Z,991.96
2023-04-16T00:18:34.584Z,992.01
2023-04-16T00:19:36.303Z,991.91
2023-04-16T00:20:38.042Z,991.93
2023-04-16T00:21:39.772Z,991.99
2023-04-16T00:22:41.505Z,992
2023-04-16T00:23:43.234Z,991.95
2023-04-16T00:24:44.973Z,991.97
2023-04-16T00:25:53.967Z,991.97
2023-04-16T00:26:48.438Z,991.98
2023-04-16T00:27:50.170Z,992.02
2023-04-16T00:28:51.897Z,992.02
2023-04-16T00:29:58.640Z,992.04
2023-04-16T00:30:55.387Z,991.99
2023-04-16T00:31:57.078Z,992.02
2023-04-16T00:32:58.935Z,992.05
2023-04-16T00:34:00.581Z,991.99
2023-04-16T00:35:02.335Z,992.01
2023-04-16T00:36:04.020Z,991.99
2023-04-16T00:37:05.759Z,992.01
2023-04-16T00:38:07.552Z,991.96
2023-04-16T00:39:09.516Z,991.89
2023-04-16T00:40:10.996Z,991.97
2023-04-16T00:41:12.700Z,991.89
2023-04-16T00:42:14.481Z,991.94
2023-04-16T00:43:16.207Z,991.91
2023-04-16T00:44:17.900Z,991.87
2023-04-16T00:45:19.621Z,991.83
2023-04-16T00:46:21.449Z,991.85
2023-04-16T00:47:23.326Z,991.89
2023-04-16T00:48:26.012Z,991.86
2023-04-16T00:49:26.543Z,991.92
2023-04-16T00:50:28.303Z,991.91
2023-04-16T00:51:30.046Z,991.91
2023-04-16T00:52:31.752Z,991.87
2023-04-16T00:53:33.476Z,991.89
2023-04-16T00:54:35.265Z,991.92
2023-04-16T00:55:38.201Z,991.91
2023-04-16T00:56:38.693Z,991.9
2023-04-16T00:57:40.425Z,991.91
2023-04-16T00:58:42.201Z,991.91
2023-04-16T00:59:43.921Z,991.9
2023-04-16T01:00:45.635Z,991.93
2023-04-16T01:01:47.517Z,991.9
2023-04-16T01:02:50.229Z,991.95
2023-04-16T01:03:50.979Z,991.94
2023-04-16T01:04:52.587Z,992.03
2023-04-16T01:05:55.694Z,991.96
2023-04-16T01:06:56.069Z,991.98
2023-04-16T01:07:57.787Z,992.01
2023-04-16T01:08:59.514Z,991.95
2023-04-16T01:10:01.282Z,992.01
2023-04-16T01:11:02.978Z,992.02
2023-04-16T01:12:04.731Z,991.99
2023-04-16T01:13:06.470Z,991.96
2023-04-16T01:14:08.175Z,991.96
2023-04-16T01:15:09.911Z,991.95
2023-04-16T01:16:11.719Z,991.92
2023-04-16T01:17:13.420Z,991.97
2023-04-16T01:18:15.137Z,991.96
2023-04-16T01:19:16.850Z,991.99
2023-04-16T01:20:18.588Z,992
2023-04-16T01:21:20.325Z,992.04
2023-04-16T01:22:22.061Z,991.99
2023-04-16T01:23:23.909Z,992.09
2023-04-16T01:24:25.539Z,992.12
2023-04-16T01:25:27.254Z,992.13
2023-04-16T01:26:28.990Z,992.12
2023-04-16T01:27:32.494Z,992.18
2023-04-16T01:28:40.801Z,992.11
2023-04-16T01:29:35.703Z,992.12
2023-04-16T01:30:35.919Z,992.16
2023-04-16T01:31:37.738Z,992.15
2023-04-16T01:32:39.433Z,992.17
2023-04-16T01:33:41.148Z,992.2
2023-04-16T01:34:42.898Z,992.19
2023-04-16T01:35:45.194Z,992.14
2023-04-16T01:36:46.350Z,992.21
2023-04-16T01:37:48.058Z,992.21
2023-04-16T01:38:49.799Z,992.2
2023-04-16T01:39:51.544Z,992.22
2023-04-16T01:40:53.254Z,992.23
2023-04-16T01:41:55.011Z,992.22
2023-04-16T01:42:56.924Z,992.23
2023-04-16T01:43:58.999Z,992.31
2023-04-16T01:45:00.208Z,992.25
2023-04-16T01:46:02.070Z,992.21
2023-04-16T01:47:03.681Z,992.24
2023-04-16T01:48:05.411Z,992.26
2023-04-16T01:49:07.403Z,992.26
2023-04-16T01:50:08.878Z,992.28
2023-04-16T01:51:10.634Z,992.33
2023-04-16T01:52:12.379Z,992.26
2023-04-16T01:53:14.089Z,992.26
2023-04-16T01:54:15.848Z,992.26
2023-04-16T01:55:17.554Z,992.28
2023-04-16T01:56:19.170Z,992.29
2023-04-16T01:57:21.333Z,992.34
2023-04-16T01:58:22.742Z,992.29
2023-04-16T01:59:24.755Z,992.32
2023-04-16T02:00:26.135Z,992.29
2023-04-16T02:01:28.035Z,992.25
2023-04-16T02:02:29.800Z,992.29
2023-04-16T02:03:31.728Z,992.28
2023-04-16T02:04:33.023Z,992.26
2023-04-16T02:05:34.781Z,992.27
2023-04-16T02:06:36.513Z,992.28
2023-04-16T02:07:38.229Z,992.24
2023-04-16T02:08:39.997Z,992.27
2023-04-16T02:09:41.700Z,992.22
2023-04-16T02:10:43.443Z,992.23
2023-04-16T02:11:45.191Z,992.24
2023-04-16T02:12:46.934Z,992.2
2023-04-16T02:13:48.667Z,992.24
2023-04-16T02:14:50.365Z,992.21
2023-04-16T02:15:52.114Z,992.29
2023-04-16T02:16:53.890Z,992.28
2023-04-16T02:17:55.609Z,992.27
2023-04-16T02:18:57.318Z,992.29
2023-04-16T02:19:59.057Z,992.28
2023-04-16T02:21:00.765Z,992.32
2023-04-16T02:22:02.546Z,992.33
2023-04-16T02:23:04.254Z,992.35
2023-04-16T02:24:05.987Z,992.36
2023-04-16T02:25:07.733Z,992.37
2023-04-16T02:26:09.445Z,992.37
2023-04-16T02:27:11.162Z,992.38
2023-04-16T02:28:12.900Z,992.37
2023-04-16T02:29:14.616Z,992.38
2023-04-16T02:30:16.387Z,992.41
2023-04-16T02:31:18.163Z,992.39
2023-04-16T02:32:19.908Z,992.38
2023-04-16T02:33:21.597Z,992.35
2023-04-16T02:34:23.321Z,992.38
2023-04-16T02:35:25.079Z,992.39
2023-04-16T02:36:26.781Z,992.41
2023-04-16T02:37:28.558Z,992.4
2023-04-16T02:38:30.268Z,992.36
2023-04-16T02:39:31.999Z,992.38
2023-04-16T02:40:33.746Z,992.36
2023-04-16T02:41:35.902Z,992.4
2023-04-16T02:42:37.190Z,992.34
2023-04-16T02:43:38.934Z,992.33
2023-04-16T02:44:42.263Z,992.35
2023-04-16T02:45:42.459Z,992.33
2023-04-16T02:46:44.108Z,992.34
2023-04-16T02:47:45.943Z,992.34
2023-04-16T02:48:47.597Z,992.34
2023-04-16T02:49:49.331Z,992.37
2023-04-16T02:50:51.038Z,992.35
2023-04-16T02:51:52.813Z,992.34
2023-04-16T02:52:54.525Z,992.34
2023-04-16T02:53:56.246Z,992.38
2023-04-16T02:54:57.990Z,992.35
2023-04-16T02:55:59.736Z,992.33
2023-04-16T02:57:01.471Z,992.34
2023-04-16T02:58:03.210Z,992.39
2023-04-16T02:59:04.938Z,992.37
2023-04-16T03:00:06.667Z,992.35
2023-04-16T03:01:08.413Z,992.37
2023-04-16T03:02:10.170Z,992.39
2023-04-16T03:03:11.867Z,992.36
2023-04-16T03:04:13.680Z,992.36
2023-04-16T03:05:15.346Z,992.43
2023-04-16T03:06:17.077Z,992.43
2023-04-16T03:07:21.830Z,992.36
2023-04-16T03:08:20.503Z,992.35
2023-04-16T03:09:22.258Z,992.4
2023-04-16T03:10:24.014Z,992.36
2023-04-16T03:11:25.713Z,992.39
2023-04-16T03:12:27.445Z,992.39
2023-04-16T03:13:29.219Z,992.47
2023-04-16T03:14:30.926Z,992.43
2023-04-16T03:15:32.700Z,992.47
2023-04-16T03:16:34.389Z,992.46
2023-04-16T03:17:36.156Z,992.5
2023-04-16T03:18:37.831Z,992.45
2023-04-16T03:19:39.604Z,992.46
2023-04-16T03:20:41.323Z,992.45
2023-04-16T03:21:43.046Z,992.41
2023-04-16T03:22:44.806Z,992.48
2023-04-16T03:23:46.572Z,992.48
2023-04-16T03:24:48.285Z,992.46
2023-04-16T03:25:50.002Z,992.42
2023-04-16T03:26:51.749Z,992.46
2023-04-16T03:27:53.511Z,992.49
2023-04-16T03:28:55.219Z,992.44
2023-04-16T03:29:56.979Z,992.48
2023-04-16T03:30:58.775Z,992.5
2023-04-16T03:32:00.452Z,992.56
2023-04-16T03:33:02.173Z,992.45
2023-04-16T03:34:03.875Z,992.54
2023-04-16T03:35:05.644Z,992.56
2023-04-16T03:36:07.350Z,992.51
2023-04-16T03:37:09.082Z,992.47
2023-04-16T03:38:10.796Z,992.52
2023-04-16T03:39:12.580Z,992.47
2023-04-16T03:40:14.280Z,992.45
2023-04-16T03:41:16.007Z,992.47
2023-04-16T03:42:17.768Z,992.46
2023-04-16T03:43:19.512Z,992.45
2023-04-16T03:44:21.266Z,992.42
2023-04-16T03:45:22.942Z,992.49
2023-04-16T03:46:24.725Z,992.44
2023-04-16T03:47:26.482Z,992.4
2023-04-16T03:48:28.149Z,992.47
2023-04-16T03:49:29.875Z,992.47
2023-04-16T03:50:31.638Z,992.42
2023-04-16T03:51:33.370Z,992.46
2023-04-16T03:52:35.075Z,992.5
2023-04-16T03:53:36.861Z,992.49
2023-04-16T03:54:38.563Z,992.49
2023-04-16T03:55:40.310Z,992.56
2023-04-16T03:56:42.035Z,992.55
2023-04-16T03:57:44.201Z,992.57
2023-04-16T03:58:45.537Z,992.48
2023-04-16T03:59:47.234Z,992.51
2023-04-16T04:00:50.098Z,992.5
2023-04-16T04:01:50.741Z,992.5
2023-04-16T04:02:52.578Z,992.49
2023-04-16T04:03:54.358Z,992.54
2023-04-16T04:04:57.956Z,992.48
2023-04-16T04:05:57.630Z,992.49
2023-04-16T04:06:59.346Z,992.53
2023-04-16T04:08:01.101Z,992.59
2023-04-16T04:09:02.846Z,992.54
2023-04-16T04:10:04.569Z,992.57
2023-04-16T04:11:06.294Z,992.56
2023-04-16T04:12:08.018Z,992.58
2023-04-16T04:13:09.764Z,992.54
2023-04-16T04:14:11.504Z,992.55
2023-04-16T04:15:13.245Z,992.58
2023-04-16T04:16:15.005Z,992.53
2023-04-16T04:17:16.742Z,992.56
2023-04-16T04:18:18.432Z,992.56
2023-04-16T04:19:20.186Z,992.59
2023-04-16T04:20:21.900Z,992.59
2023-04-16T04:21:23.766Z,992.6
2023-04-16T04:22:25.340Z,992.55
2023-04-16T04:23:34.673Z,992.58
2023-04-16T04:24:29.034Z,992.57
2023-04-16T04:25:30.542Z,992.59
2023-04-16T04:26:32.311Z,992.6
2023-04-16T04:27:34.037Z,992.6
2023-04-16T04:28:35.776Z,992.62
2023-04-16T04:29:37.489Z,992.61
2023-04-16T04:30:39.250Z,992.59
2023-04-16T04:31:41.058Z,992.61
2023-04-16T04:32:42.807Z,992.63
2023-04-16T04:33:44.447Z,992.67
2023-04-16T04:34:46.163Z,992.65
2023-04-16T04:35:47.886Z,992.6
2023-04-16T04:36:49.657Z,992.61
2023-04-16T04:37:51.377Z,992.65
2023-04-16T04:38:53.098Z,992.65
2023-04-16T04:39:54.817Z,992.63
2023-04-16T04:40:56.587Z,992.56
2023-04-16T04:41:58.322Z,992.64
2023-04-16T04:43:00.065Z,992.64
2023-04-16T04:44:01.861Z,992.63
2023-04-16T04:45:03.510Z,992.68
2023-04-16T04:46:05.249Z,992.71
2023-04-16T04:47:06.974Z,992.64
2023-04-16T04:48:08.724Z,992.71
2023-04-16T04:49:10.795Z,992.76
2023-04-16T04:50:12.158Z,992.78
2023-04-16T04:51:13.881Z,992.78
2023-04-16T04:52:15.620Z,992.79
2023-04-16T04:53:17.357Z,992.75
2023-04-16T04:54:19.092Z,992.77
2023-04-16T04:55:20.842Z,992.76
2023-04-16T04:56:22.567Z,992.83
2023-04-16T04:57:24.307Z,992.89
2023-04-16T04:58:26.044Z,992.85
2023-04-16T04:59:27.767Z,992.87
2023-04-16T05:00:31.388Z,992.92
2023-04-16T05:01:32.312Z,992.9
2023-04-16T05:02:33.078Z,992.92
2023-04-16T05:03:34.748Z,992.92
2023-04-16T05:04:36.466Z,992.93
2023-04-16T05:05:38.315Z,992.94
2023-04-16T05:06:39.890Z,992.97
2023-04-16T05:07:41.625Z,993.04
2023-04-16T05:08:43.358Z,993.02
2023-04-16T05:09:45.154Z,992.95
2023-04-16T05:10:46.826Z,993.05
2023-04-16T05:11:48.585Z,993.08
2023-04-16T05:12:50.316Z,993.09
2023-04-16T05:13:52.055Z,993.06
2023-04-16T05:14:53.793Z,993.06
2023-04-16T05:15:55.536Z,993.09
2023-04-16T05:16:57.257Z,993.11
2023-04-16T05:17:59.061Z,993.07
2023-04-16T05:19:00.716Z,993.14
2023-04-16T05:20:02.439Z,993.12
2023-04-16T05:21:04.201Z,993.14
2023-04-16T05:22:05.897Z,993.13
2023-04-16T05:23:07.652Z,993.06
2023-04-16T05:24:09.373Z,993.1
2023-04-16T05:25:11.117Z,993.14
2023-04-16T05:26:12.848Z,993.16
2023-04-16T05:27:14.586Z,993.13
2023-04-16T05:28:23.614Z,993.17
2023-04-16T05:29:18.079Z,993.22
2023-04-16T05:30:19.791Z,993.21
2023-04-16T05:31:21.577Z,993.21
2023-04-16T05:32:23.291Z,993.3
2023-04-16T05:33:24.977Z,993.29
2023-04-16T05:34:26.693Z,993.28
2023-04-16T05:35:28.465Z,993.3
2023-04-16T05:36:30.201Z,993.26
2023-04-16T05:37:31.927Z,993.35
2023-04-16T05:38:33.624Z,993.37
2023-04-16T05:39:35.367Z,993.35
2023-04-16T05:40:37.137Z,993.31
2023-04-16T05:41:38.846Z,993.31
2023-04-16T05:42:40.822Z,993.27
2023-04-16T05:43:42.288Z,993.31
2023-04-16T05:44:44.054Z,993.3
2023-04-16T05:45:45.855Z,993.18
2023-04-16T05:46:47.743Z,993.25
2023-04-16T05:47:49.269Z,993.1
2023-04-16T05:48:50.980Z,993.19
2023-04-16T05:49:52.773Z,993.19
2023-04-16T05:50:54.485Z,993.19
2023-04-16T05:51:56.176Z,993.25
2023-04-16T05:52:59.167Z,993.3
2023-04-16T05:54:00.076Z,993.34
2023-04-16T05:55:01.743Z,993.41
2023-04-16T05:56:03.127Z,993.45
2023-04-16T05:57:04.851Z,993.46
2023-04-16T05:58:07.890Z,993.49
2023-04-16T05:59:08.896Z,993.49
2023-04-16T06:00:10.076Z,993.51
2023-04-16T06:01:11.802Z,993.51
2023-04-16T06:02:13.761Z,993.49
2023-04-16T06:03:15.420Z,993.54
2023-04-16T06:04:17.212Z,993.53
2023-04-16T06:05:18.765Z,993.52
2023-04-16T06:06:20.461Z,993.56
2023-04-16T06:07:22.224Z,993.5
2023-04-16T06:08:23.923Z,993.53
2023-04-16T06:09:25.670Z,993.5
2023-04-16T06:10:27.447Z,993.51
2023-04-16T06:11:29.120Z,993.49
2023-04-16T06:12:30.844Z,993.49
2023-04-16T06:13:32.618Z,993.5
2023-04-16T06:14:34.354Z,993.5
2023-04-16T06:15:36.082Z,993.46
2023-04-16T06:16:37.813Z,993.45
2023-04-16T06:17:39.607Z,993.5
2023-04-16T06:18:41.275Z,993.46
2023-04-16T06:19:43.005Z,993.51
2023-04-16T06:20:44.758Z,993.51
2023-04-16T06:21:46.514Z,993.56
2023-04-16T06:22:48.227Z,993.54
2023-04-16T06:23:49.947Z,993.61
2023-04-16T06:24:51.685Z,993.56
2023-04-16T06:25:53.426Z,993.58
2023-04-16T06:26:55.118Z,993.54
2023-04-16T06:27:56.882Z,993.55
2023-04-16T06:28:58.592Z,993.55
2023-04-16T06:30:00.381Z,993.6
2023-04-16T06:31:02.108Z,993.6
2023-04-16T06:32:03.849Z,993.58
2023-04-16T06:33:05.619Z,993.58
2023-04-16T06:34:07.284Z,993.58
2023-04-16T06:35:08.992Z,993.58
2023-04-16T06:36:10.748Z,993.6
2023-04-16T06:37:12.459Z,993.6
2023-04-16T06:38:14.189Z,993.57
2023-04-16T06:39:17.878Z,993.56
2023-04-16T06:40:23.847Z,993.61
2023-04-16T06:41:19.416Z,993.63
2023-04-16T06:42:21.217Z,993.62
2023-04-16T06:43:22.891Z,993.62
2023-04-16T06:44:24.647Z,993.67
2023-04-16T06:45:26.347Z,993.68
2023-04-16T06:46:28.306Z,993.65
2023-04-16T06:47:29.890Z,993.67
2023-04-16T06:48:31.547Z,993.73
2023-04-16T06:51:09.297Z,993.66
2023-04-16T06:53:12.894Z,993.68
2023-04-16T06:54:15.887Z,993.65
2023-04-16T06:55:32.988Z,993.7
2023-04-16T06:56:37.940Z,993.72
2023-04-16T06:57:39.658Z,993.66
2023-04-16T06:58:41.434Z,993.73
2023-04-16T06:59:43.153Z,993.71
2023-04-16T07:00:44.904Z,993.73
2023-04-16T07:01:46.624Z,993.75
2023-04-16T07:02:57.111Z,993.76
2023-04-16T07:03:50.351Z,993.76
2023-04-16T07:04:51.797Z,993.74
2023-04-16T07:05:53.534Z,993.7
2023-04-16T07:06:55.269Z,993.72
2023-04-16T07:07:57.018Z,993.71
2023-04-16T07:08:58.752Z,993.7
2023-04-16T07:10:00.488Z,993.68
2023-04-16T07:11:02.414Z,993.66
2023-04-16T07:12:03.942Z,993.66
2023-04-16T07:13:05.671Z,993.7
2023-04-16T07:14:07.401Z,993.67
2023-04-16T07:15:09.148Z,993.67
2023-04-16T07:16:10.927Z,993.67
2023-04-16T07:17:12.800Z,993.65
2023-04-16T07:18:14.443Z,993.65
2023-04-16T07:19:16.077Z,993.71
2023-04-16T07:20:17.995Z,993.7
2023-04-16T07:21:19.528Z,993.71
2023-04-16T07:22:21.390Z,993.7
2023-04-16T07:23:22.994Z,993.73
2023-04-16T07:24:24.734Z,993.75
2023-04-16T07:25:26.466Z,993.7
2023-04-16T07:26:28.204Z,993.75
2023-04-16T07:27:29.934Z,993.79
2023-04-16T07:28:31.674Z,993.77
2023-04-16T07:29:33.409Z,993.76
2023-04-16T07:30:35.139Z,993.8
2023-04-16T07:31:36.941Z,993.78
2023-04-16T07:32:38.661Z,993.77
2023-04-16T07:33:40.351Z,993.75
2023-04-16T07:34:42.065Z,993.83
2023-04-16T07:35:43.812Z,993.79
2023-04-16T07:36:45.529Z,993.84
2023-04-16T07:37:47.288Z,993.75
2023-04-16T07:38:49.058Z,993.85
2023-04-16T07:39:50.738Z,993.83
2023-04-16T07:40:52.474Z,993.87
2023-04-16T07:41:54.206Z,993.85
2023-04-16T07:42:55.944Z,993.86
2023-04-16T07:43:57.682Z,993.87
2023-04-16T07:44:59.423Z,993.79
2023-04-16T07:46:01.185Z,993.83
2023-04-16T07:47:04.880Z,993.84
2023-04-16T07:48:04.772Z,993.84
2023-04-16T07:49:06.343Z,993.79
2023-04-16T07:50:08.109Z,993.8
2023-04-16T07:51:09.968Z,993.84
2023-04-16T07:52:11.527Z,993.83
2023-04-16T07:53:13.293Z,993.87
2023-04-16T07:54:15.008Z,993.86
2023-04-16T07:55:16.747Z,993.86
2023-04-16T07:56:18.478Z,993.89
2023-04-16T07:57:20.407Z,993.9
2023-04-16T07:58:21.960Z,993.88
2023-04-16T07:59:24.538Z,993.9
2023-04-16T08:00:25.446Z,993.95
2023-04-16T08:01:27.138Z,993.93
2023-04-16T08:02:28.988Z,993.9
2023-04-16T08:03:30.931Z,993.95
2023-04-16T08:04:32.621Z,993.95
2023-04-16T08:05:34.309Z,994
2023-04-16T08:06:35.833Z,993.99
2023-04-16T08:07:37.574Z,994.01
2023-04-16T08:08:39.281Z,994.01
2023-04-16T08:09:41.075Z,994.01
2023-04-16T08:10:42.753Z,993.99
2023-04-16T08:11:44.477Z,994.05
2023-04-16T08:12:47.236Z,994.08
2023-04-16T08:13:47.969Z,994.07
2023-04-16T08:14:49.675Z,994.11
2023-04-16T08:15:51.509Z,994.1
2023-04-16T08:16:53.172Z,994.13
2023-04-16T08:17:54.983Z,994.13
2023-04-16T08:18:56.658Z,994.12
2023-04-16T08:20:00.999Z,994.18
2023-04-16T08:21:00.148Z,994.18
2023-04-16T08:22:01.829Z,994.16
2023-04-16T08:23:03.564Z,994.23
2023-04-16T08:24:05.292Z,994.21
2023-04-16T08:25:07.015Z,994.27
2023-04-16T08:26:08.769Z,994.23
2023-04-16T08:27:18.560Z,994.24
2023-04-16T08:28:12.226Z,994.27
2023-04-16T08:29:13.968Z,994.28
2023-04-16T08:30:15.691Z,994.26
2023-04-16T08:31:17.463Z,994.25
2023-04-16T08:32:19.163Z,994.26
2023-04-16T08:33:20.888Z,994.27
2023-04-16T08:34:22.641Z,994.31
2023-04-16T08:35:27.413Z,994.3
2023-04-16T08:36:26.133Z,994.3
2023-04-16T08:37:27.866Z,994.28
2023-04-16T08:38:29.576Z,994.28
2023-04-16T08:39:31.355Z,994.31
2023-04-16T08:40:33.054Z,994.31
2023-04-16T08:41:34.806Z,994.35
2023-04-16T08:42:36.492Z,994.36
2023-04-16T08:43:38.240Z,994.39
2023-04-16T08:44:39.953Z,994.27
2023-04-16T08:45:41.694Z,994.34
2023-04-16T08:46:48.472Z,994.35
2023-04-16T08:47:45.241Z,994.35
2023-04-16T08:48:46.889Z,994.38
2023-04-16T08:49:48.649Z,994.38
2023-04-16T08:50:50.353Z,994.4
2023-04-16T08:51:52.077Z,994.38
2023-04-16T08:52:53.867Z,994.41
2023-04-16T08:53:55.565Z,994.45
2023-04-16T08:54:57.362Z,994.44
2023-04-16T08:55:59.011Z,994.42
2023-04-16T08:57:00.757Z,994.5
2023-04-16T08:58:02.557Z,994.44
2023-04-16T08:59:04.240Z,994.49
2023-04-16T09:00:05.960Z,994.45
2023-04-16T09:01:07.737Z,994.51
2023-04-16T09:02:09.627Z,994.54
2023-04-16T09:03:11.388Z,994.53
2023-04-16T09:04:12.989Z,994.51
2023-04-16T09:05:14.649Z,994.51
2023-04-16T09:06:16.418Z,994.49
2023-04-16T09:07:18.142Z,994.54
2023-04-16T09:08:19.833Z,994.54
2023-04-16T09:09:21.582Z,994.58
2023-04-16T09:10:23.295Z,994.51
2023-04-16T09:11:25.022Z,994.53
2023-04-16T09:12:26.779Z,994.55
2023-04-16T09:13:28.540Z,994.57
2023-04-16T09:14:30.225Z,994.55
2023-04-16T09:15:32.874Z,994.53
2023-04-16T09:16:33.803Z,994.56
2023-04-16T09:17:35.449Z,994.57
2023-04-16T09:18:37.166Z,994.58
2023-04-16T09:19:38.884Z,994.58
2023-04-16T09:20:40.639Z,994.59
2023-04-16T09:21:42.368Z,994.58
2023-04-16T09:22:44.151Z,994.57
2023-04-16T09:23:46.791Z,994.61
2023-04-16T09:24:47.577Z,994.64
2023-04-16T09:25:49.288Z,994.64
2023-04-16T09:26:51.031Z,994.64
2023-04-16T09:27:52.772Z,994.63
2023-04-16T09:28:54.519Z,994.68
2023-04-16T09:29:56.224Z,994.66
2023-04-16T09:30:58.054Z,994.69
2023-04-16T09:31:59.809Z,994.71
2023-04-16T09:33:01.532Z,994.72
2023-04-16T09:34:03.187Z,994.72
2023-04-16T09:35:04.932Z,994.77
2023-04-16T09:36:06.662Z,994.75
2023-04-16T09:37:08.397Z,994.75
2023-04-16T09:38:10.125Z,994.75
2023-04-16T09:39:11.966Z,994.72
2023-04-16T09:40:13.626Z,994.76
2023-04-16T09:41:16.327Z,994.72
2023-04-16T09:42:17.040Z,994.78
2023-04-16T09:43:18.779Z,994.77
2023-04-16T09:44:20.500Z,994.78
2023-04-16T09:45:22.266Z,994.8
2023-04-16T09:46:24.049Z,994.79
2023-04-16T09:47:25.754Z,994.76
2023-04-16T09:48:27.463Z,994.8
2023-04-16T09:49:29.170Z,994.83
2023-04-16T09:50:30.916Z,994.78
2023-04-16T09:51:32.663Z,994.8
2023-04-16T09:52:34.457Z,994.78
2023-04-16T09:53:36.100Z,994.75
2023-04-16T09:54:37.837Z,994.85
2023-04-16T09:55:39.578Z,994.79
2023-04-16T09:56:41.325Z,994.8
2023-04-16T09:57:43.028Z,994.83
2023-04-16T09:58:44.778Z,994.86
2023-04-16T09:59:46.504Z,994.88
2023-04-16T10:00:48.276Z,994.83
2023-04-16T10:01:50.285Z,994.85
2023-04-16T10:02:51.760Z,994.86
2023-04-16T10:03:53.704Z,994.86
2023-04-16T10:04:55.232Z,994.92
2023-04-16T10:05:56.946Z,994.94
2023-04-16T10:06:58.666Z,994.94
2023-04-16T10:08:00.399Z,994.91
2023-04-16T10:09:02.652Z,994.92
2023-04-16T10:10:03.864Z,994.91
2023-04-16T10:11:05.624Z,994.96
2023-04-16T10:12:07.326Z,994.99
2023-04-16T10:13:09.063Z,994.98
2023-04-16T10:14:10.785Z,995.04
2023-04-16T10:15:12.528Z,995
2023-04-16T10:16:14.305Z,995.03
2023-04-16T10:17:15.993Z,995
2023-04-16T10:18:17.736Z,995.01
2023-04-16T10:19:19.447Z,995
2023-04-16T10:20:21.197Z,995.09
2023-04-16T10:21:22.931Z,995.07
2023-04-16T10:22:24.661Z,995.07
2023-04-16T10:23:26.386Z,995.09
2023-04-16T10:24:28.153Z,995.04
2023-04-16T10:25:29.855Z,995.09
2023-04-16T10:26:31.593Z,995.1
2023-04-16T10:27:33.384Z,995.1
2023-04-16T10:28:35.054Z,995.1
2023-04-16T10:29:36.787Z,995.07
2023-04-16T10:30:38.533Z,995.17
2023-04-16T10:31:40.253Z,995.08
2023-04-16T10:32:42.067Z,995.15
2023-04-16T10:33:43.740Z,995.11
2023-04-16T10:34:45.470Z,995.11
2023-04-16T10:35:52.432Z,995.16
2023-04-16T10:36:48.925Z,995.11
2023-04-16T10:37:50.656Z,995.12
2023-04-16T10:38:52.416Z,995.11
2023-04-16T10:39:54.156Z,995.14
2023-04-16T10:40:55.848Z,995.22
2023-04-16T10:41:57.571Z,995.16
2023-04-16T10:42:59.351Z,995.13
2023-04-16T10:44:01.050Z,995.08
2023-04-16T10:45:02.811Z,995.1
2023-04-16T10:46:04.595Z,995.14
2023-04-16T10:47:06.271Z,995.16
2023-04-16T10:48:08.038Z,995.13
2023-04-16T10:49:09.953Z,995.12
2023-04-16T10:50:11.456Z,995.16
2023-04-16T10:51:13.188Z,995.13
2023-04-16T10:52:14.974Z,995.12
2023-04-16T10:53:16.640Z,995.13
2023-04-16T10:54:18.381Z,995.1
2023-04-16T10:55:20.142Z,995.15
2023-04-16T10:56:21.854Z,995.14
2023-04-16T10:57:23.605Z,995.09
2023-04-16T10:58:25.323Z,995.14
2023-04-16T10:59:27.067Z,995.12
2023-04-16T11:00:28.835Z,995.17
2023-04-16T11:01:30.603Z,995.16
2023-04-16T11:02:32.463Z,995.16
2023-04-16T11:03:34.193Z,995.18
2023-04-16T11:04:35.855Z,995.13
2023-04-16T11:05:37.467Z,995.18
2023-04-16T11:06:39.228Z,995.22
2023-04-16T11:07:40.935Z,995.23
2023-04-16T11:08:53.774Z,995.21
2023-04-16T11:09:44.409Z,995.19
2023-04-16T11:10:46.149Z,995.18
2023-04-16T11:11:47.853Z,995.14
2023-04-16T11:12:49.592Z,995.15
2023-04-16T11:13:51.316Z,995.16
2023-04-16T11:14:53.064Z,995.18
2023-04-16T11:15:54.934Z,995.21
2023-04-16T11:16:56.513Z,995.2
2023-04-16T11:17:58.325Z,995.17
2023-04-16T11:19:00.047Z,995.17
2023-04-16T11:20:01.780Z,995.15
2023-04-16T11:21:03.466Z,995.19
2023-04-16T11:22:05.195Z,995.12
2023-04-16T11:23:06.994Z,995.14
2023-04-16T11:24:08.674Z,995.14
2023-04-16T11:25:10.402Z,995.14
2023-04-16T11:26:12.127Z,995.16
2023-04-16T11:27:13.913Z,995.19
2023-04-16T11:28:15.585Z,995.19
2023-04-16T11:29:17.325Z,995.18
2023-04-16T11:30:19.063Z,995.15
2023-04-16T11:31:21.033Z,995.19
2023-04-16T11:32:21.676Z,995.19
2023-04-16T11:33:28.751Z,995.2
2023-04-16T11:34:44.522Z,995.22
2023-04-16T11:35:46.267Z,995.12
2023-04-16T11:36:47.994Z,995.17
2023-04-16T11:37:49.704Z,995.2
2023-04-16T11:38:51.443Z,995.19
2023-04-16T11:39:53.180Z,995.16
2023-04-16T11:40:54.889Z,995.18
2023-04-16T11:41:56.663Z,995.2
2023-04-16T11:42:59.845Z,995.2
2023-04-16T11:44:00.120Z,995.18
2023-04-16T11:45:01.977Z,995.18
2023-04-16T11:46:12.928Z,995.15
2023-04-16T11:47:05.384Z,995.19
2023-04-16T11:48:09.887Z,995.17
2023-04-16T11:49:09.380Z,995.14
2023-04-16T11:50:10.505Z,995.16
2023-04-16T11:51:12.247Z,995.09
2023-04-16T11:52:13.987Z,995.16
2023-04-16T11:53:15.721Z,995.19
2023-04-16T11:54:17.431Z,995.15
2023-04-16T11:55:19.199Z,995.2
2023-04-16T11:56:20.911Z,995.18
2023-04-16T11:57:22.652Z,995.17
2023-04-16T11:58:24.367Z,995.17
2023-04-16T11:59:26.128Z,995.22
2023-04-16T12:00:27.889Z,995.19
2023-04-16T12:01:29.589Z,995.2
2023-04-16T12:02:31.379Z,995.16
2023-04-16T12:03:33.371Z,995.2
2023-04-16T12:04:34.908Z,995.22
2023-04-16T12:05:36.511Z,995.19
2023-04-16T12:06:38.257Z,995.21
2023-04-16T12:07:39.967Z,995.19
2023-04-16T12:08:41.735Z,995.18
2023-04-16T12:09:43.438Z,995.27
2023-04-16T12:10:45.176Z,995.26
2023-04-16T12:11:47.056Z,995.16
2023-04-16T12:12:48.644Z,995.16
2023-04-16T12:13:50.384Z,995.25
2023-04-16T12:14:52.147Z,995.26
2023-04-16T12:15:53.897Z,995.27
2023-04-16T12:16:55.697Z,995.27
2023-04-16T12:17:57.338Z,995.26
2023-04-16T12:18:59.073Z,995.22
2023-04-16T12:20:00.771Z,995.26
2023-04-16T12:21:02.528Z,995.25
2023-04-16T12:22:04.256Z,995.27
2023-04-16T12:23:05.976Z,995.22
2023-04-16T12:24:07.700Z,995.28
2023-04-16T12:25:09.503Z,995.28
2023-04-16T12:26:13.150Z,995.27
2023-04-16T12:27:12.921Z,995.24
2023-04-16T12:28:14.636Z,995.23
2023-04-16T12:29:16.410Z,995.25
2023-04-16T12:30:18.135Z,995.3
2023-04-16T12:31:19.910Z,995.26
2023-04-16T12:32:21.691Z,995.2
2023-04-16T12:33:23.302Z,995.28
2023-04-16T12:34:46.383Z,995.26
2023-04-16T12:35:26.780Z,995.28
2023-04-16T12:36:28.510Z,995.28
2023-04-16T12:37:30.244Z,995.31
2023-04-16T12:38:32.217Z,995.28
2023-04-16T12:39:33.720Z,995.3
2023-04-16T12:40:36.504Z,995.31
2023-04-16T12:41:37.204Z,995.35
2023-04-16T12:42:38.948Z,995.37
2023-04-16T12:43:40.643Z,995.34
2023-04-16T12:44:42.379Z,995.32
2023-04-16T12:45:44.152Z,995.33
2023-04-16T12:46:45.992Z,995.29
2023-04-16T12:47:47.588Z,995.32
2023-04-16T12:48:49.332Z,995.28
2023-04-16T12:49:51.053Z,995.28
2023-04-16T12:50:52.803Z,995.32
2023-04-16T12:51:54.546Z,995.28
2023-04-16T12:52:56.284Z,995.31
2023-04-16T12:53:58.058Z,995.32
2023-04-16T12:54:59.755Z,995.33
2023-04-16T12:56:01.494Z,995.28